sensor_id;sensor_type;location;lat;lon;timestamp;temperature;humidity
68867;SHT30;56451;44.804;20.476;2022-09-09T00:00:19;26.61;55.45
68867;SHT30;56451;44.804;20.476;2022-09-09T00:02:52;26.59;55.37
68867;SHT30;56451;44.804;20.476;2022-09-09T00:05:25;26.57;55.46
68867;SHT30;56451;44.804;20.476;2022-09-09T00:07:55;26.56;55.62
68867;SHT30;56451;44.804;20.476;2022-09-09T00:10:58;26.54;55.56
68867;SHT30;56451;44.804;20.476;2022-09-09T00:16:22;26.49;55.59
68867;SHT30;56451;44.804;20.476;2022-09-09T00:19:12;26.44;55.64
68867;SHT30;56451;44.804;20.476;2022-09-09T00:22:32;26.47;55.49
68867;SHT30;56451;44.804;20.476;2022-09-09T00:24:51;26.49;55.40
68867;SHT30;56451;44.804;20.476;2022-09-09T00:27:37;26.46;55.46
68867;SHT30;56451;44.804;20.476;2022-09-09T00:32:37;26.43;55.45
68867;SHT30;56451;44.804;20.476;2022-09-09T00:35:21;26.43;55.47
68867;SHT30;56451;44.804;20.476;2022-09-09T00:37:50;26.41;55.36
68867;SHT30;56451;44.804;20.476;2022-09-09T00:40:31;26.40;55.59
68867;SHT30;56451;44.804;20.476;2022-09-09T00:48:20;26.33;55.55
68867;SHT30;56451;44.804;20.476;2022-09-09T00:50:57;26.33;55.48
68867;SHT30;56451;44.804;20.476;2022-09-09T00:56:29;26.32;55.21
68867;SHT30;56451;44.804;20.476;2022-09-09T00:59:35;26.32;55.25
68867;SHT30;56451;44.804;20.476;2022-09-09T01:02:39;26.33;54.89
68867;SHT30;56451;44.804;20.476;2022-09-09T01:08:00;26.32;54.56
68867;SHT30;56451;44.804;20.476;2022-09-09T01:13:02;26.35;54.25
68867;SHT30;56451;44.804;20.476;2022-09-09T01:15:31;26.35;54.10
68867;SHT30;56451;44.804;20.476;2022-09-09T01:18:05;26.33;54.04
68867;SHT30;56451;44.804;20.476;2022-09-09T01:26:39;26.36;53.73
68867;SHT30;56451;44.804;20.476;2022-09-09T01:29:13;26.36;53.62
68867;SHT30;56451;44.804;20.476;2022-09-09T01:31:51;26.35;53.70
68867;SHT30;56451;44.804;20.476;2022-09-09T01:34:18;26.37;53.68
68867;SHT30;56451;44.804;20.476;2022-09-09T01:36:58;26.39;53.75
68867;SHT30;56451;44.804;20.476;2022-09-09T01:39:25;26.37;53.84
68867;SHT30;56451;44.804;20.476;2022-09-09T01:41:59;26.39;53.88
68867;SHT30;56451;44.804;20.476;2022-09-09T01:44:25;26.36;53.86
68867;SHT30;56451;44.804;20.476;2022-09-09T01:46:51;26.37;53.81
68867;SHT30;56451;44.804;20.476;2022-09-09T01:49:19;26.39;53.95
68867;SHT30;56451;44.804;20.476;2022-09-09T01:51:50;26.43;54.11
68867;SHT30;56451;44.804;20.476;2022-09-09T01:54:17;26.40;54.13
68867;SHT30;56451;44.804;20.476;2022-09-09T01:57:07;26.41;54.12
68867;SHT30;56451;44.804;20.476;2022-09-09T02:02:23;26.39;54.34
68867;SHT30;56451;44.804;20.476;2022-09-09T02:07:40;26.37;54.17
68867;SHT30;56451;44.804;20.476;2022-09-09T02:10:21;26.37;54.10
68867;SHT30;56451;44.804;20.476;2022-09-09T02:13:18;26.36;53.99
68867;SHT30;56451;44.804;20.476;2022-09-09T02:18:57;26.35;53.95
68867;SHT30;56451;44.804;20.476;2022-09-09T02:21:35;26.35;53.93
68867;SHT30;56451;44.804;20.476;2022-09-09T02:24:04;26.37;53.79
68867;SHT30;56451;44.804;20.476;2022-09-09T02:26:40;26.33;53.97
68867;SHT30;56451;44.804;20.476;2022-09-09T02:29:14;26.32;53.91
68867;SHT30;56451;44.804;20.476;2022-09-09T02:31:42;26.29;53.87
68867;SHT30;56451;44.804;20.476;2022-09-09T02:34:15;26.30;53.94
68867;SHT30;56451;44.804;20.476;2022-09-09T02:36:45;26.29;53.79
68867;SHT30;56451;44.804;20.476;2022-09-09T02:39:11;26.32;53.82
68867;SHT30;56451;44.804;20.476;2022-09-09T02:41:40;26.26;53.89
68867;SHT30;56451;44.804;20.476;2022-09-09T02:44:14;26.29;53.81
68867;SHT30;56451;44.804;20.476;2022-09-09T02:49:33;26.23;53.88
68867;SHT30;56451;44.804;20.476;2022-09-09T02:52:08;26.23;53.95
68867;SHT30;56451;44.804;20.476;2022-09-09T02:54:38;26.26;53.96
68867;SHT30;56451;44.804;20.476;2022-09-09T02:59:39;26.20;54.09
68867;SHT30;56451;44.804;20.476;2022-09-09T03:02:05;26.23;53.99
68867;SHT30;56451;44.804;20.476;2022-09-09T03:04:32;26.25;54.04
68867;SHT30;56451;44.804;20.476;2022-09-09T03:06:59;26.23;54.06
68867;SHT30;56451;44.804;20.476;2022-09-09T03:09:25;26.20;54.07
68867;SHT30;56451;44.804;20.476;2022-09-09T03:11:55;26.19;54.07
68867;SHT30;56451;44.804;20.476;2022-09-09T03:14:22;26.22;54.04
68867;SHT30;56451;44.804;20.476;2022-09-09T03:16:51;26.16;54.12
68867;SHT30;56451;44.804;20.476;2022-09-09T03:19:17;26.11;54.34
68867;SHT30;56451;44.804;20.476;2022-09-09T03:21:47;26.12;54.44
68867;SHT30;56451;44.804;20.476;2022-09-09T03:24:13;26.11;54.42
68867;SHT30;56451;44.804;20.476;2022-09-09T03:26:40;26.16;54.34
68867;SHT30;56451;44.804;20.476;2022-09-09T03:29:10;26.16;54.32
68867;SHT30;56451;44.804;20.476;2022-09-09T03:31:36;26.15;54.50
68867;SHT30;56451;44.804;20.476;2022-09-09T03:34:02;26.13;54.65
68867;SHT30;56451;44.804;20.476;2022-09-09T03:36:32;26.16;54.57
68867;SHT30;56451;44.804;20.476;2022-09-09T03:38:58;26.15;54.59
68867;SHT30;56451;44.804;20.476;2022-09-09T03:41:27;26.13;54.67
68867;SHT30;56451;44.804;20.476;2022-09-09T03:43:53;26.13;55.04
68867;SHT30;56451;44.804;20.476;2022-09-09T03:46:21;26.09;55.14
68867;SHT30;56451;44.804;20.476;2022-09-09T03:48:47;26.06;55.14
68867;SHT30;56451;44.804;20.476;2022-09-09T03:51:13;26.02;55.31
68867;SHT30;56451;44.804;20.476;2022-09-09T03:53:40;25.99;55.52
68867;SHT30;56451;44.804;20.476;2022-09-09T03:56:06;25.99;55.63
68867;SHT30;56451;44.804;20.476;2022-09-09T03:58:34;25.95;56.02
68867;SHT30;56451;44.804;20.476;2022-09-09T04:01:12;25.89;56.37
68867;SHT30;56451;44.804;20.476;2022-09-09T04:03:40;25.77;57.30
68867;SHT30;56451;44.804;20.476;2022-09-09T04:06:08;25.65;58.65
68867;SHT30;56451;44.804;20.476;2022-09-09T04:08:36;25.58;59.80
68867;SHT30;56451;44.804;20.476;2022-09-09T04:11:03;25.44;60.61
68867;SHT30;56451;44.804;20.476;2022-09-09T04:13:30;25.30;61.43
68867;SHT30;56451;44.804;20.476;2022-09-09T04:15:58;25.13;62.06
68867;SHT30;56451;44.804;20.476;2022-09-09T04:18:25;25.00;62.76
68867;SHT30;56451;44.804;20.476;2022-09-09T04:20:52;24.92;63.19
68867;SHT30;56451;44.804;20.476;2022-09-09T04:23:20;24.85;63.81
68867;SHT30;56451;44.804;20.476;2022-09-09T04:25:48;24.80;64.49
68867;SHT30;56451;44.804;20.476;2022-09-09T04:28:19;24.72;64.39
68867;SHT30;56451;44.804;20.476;2022-09-09T04:30:45;24.69;64.97
68867;SHT30;56451;44.804;20.476;2022-09-09T04:33:12;24.64;65.09
68867;SHT30;56451;44.804;20.476;2022-09-09T04:35:38;24.62;65.37
68867;SHT30;56451;44.804;20.476;2022-09-09T04:38:05;24.62;65.42
68867;SHT30;56451;44.804;20.476;2022-09-09T04:40:35;24.57;65.90
68867;SHT30;56451;44.804;20.476;2022-09-09T04:43:02;24.52;66.47
68867;SHT30;56451;44.804;20.476;2022-09-09T04:45:31;24.51;66.41
68867;SHT30;56451;44.804;20.476;2022-09-09T04:47:57;24.52;66.74
68867;SHT30;56451;44.804;20.476;2022-09-09T04:50:23;24.47;67.20
68867;SHT30;56451;44.804;20.476;2022-09-09T04:53:00;24.45;68.03
68867;SHT30;56451;44.804;20.476;2022-09-09T04:55:27;24.37;68.15
68867;SHT30;56451;44.804;20.476;2022-09-09T04:57:53;24.35;68.50
68867;SHT30;56451;44.804;20.476;2022-09-09T05:00:19;24.34;68.44
68867;SHT30;56451;44.804;20.476;2022-09-09T05:02:45;24.31;68.52
68867;SHT30;56451;44.804;20.476;2022-09-09T05:05:12;24.31;68.28
68867;SHT30;56451;44.804;20.476;2022-09-09T05:07:38;24.29;67.93
68867;SHT30;56451;44.804;20.476;2022-09-09T05:10:04;24.29;68.04
68867;SHT30;56451;44.804;20.476;2022-09-09T05:12:30;24.35;67.80
68867;SHT30;56451;44.804;20.476;2022-09-09T05:14:57;24.39;67.72
68867;SHT30;56451;44.804;20.476;2022-09-09T05:17:23;24.34;67.19
68867;SHT30;56451;44.804;20.476;2022-09-09T05:19:49;24.37;67.29
68867;SHT30;56451;44.804;20.476;2022-09-09T05:22:21;24.37;67.66
68867;SHT30;56451;44.804;20.476;2022-09-09T05:24:52;24.34;68.11
68867;SHT30;56451;44.804;20.476;2022-09-09T05:27:18;24.32;67.89
68867;SHT30;56451;44.804;20.476;2022-09-09T05:29:46;24.37;68.02
68867;SHT30;56451;44.804;20.476;2022-09-09T05:32:13;24.38;68.09
68867;SHT30;56451;44.804;20.476;2022-09-09T05:34:42;24.41;67.77
68867;SHT30;56451;44.804;20.476;2022-09-09T05:37:08;24.42;67.72
68867;SHT30;56451;44.804;20.476;2022-09-09T05:39:34;24.42;67.76
68867;SHT30;56451;44.804;20.476;2022-09-09T05:42:03;24.41;68.14
68867;SHT30;56451;44.804;20.476;2022-09-09T05:44:31;24.39;67.98
68867;SHT30;56451;44.804;20.476;2022-09-09T05:46:57;24.38;68.08
68867;SHT30;56451;44.804;20.476;2022-09-09T05:49:23;24.35;68.40
68867;SHT30;56451;44.804;20.476;2022-09-09T05:51:49;24.42;68.29
68867;SHT30;56451;44.804;20.476;2022-09-09T05:54:17;24.39;68.47
68867;SHT30;56451;44.804;20.476;2022-09-09T05:56:50;24.45;68.21
68867;SHT30;56451;44.804;20.476;2022-09-09T05:59:18;24.47;68.07
68867;SHT30;56451;44.804;20.476;2022-09-09T06:01:44;24.51;67.95
68867;SHT30;56451;44.804;20.476;2022-09-09T06:04:19;24.51;67.97
68867;SHT30;56451;44.804;20.476;2022-09-09T06:06:48;24.58;67.86
68867;SHT30;56451;44.804;20.476;2022-09-09T06:09:17;24.55;68.13
68867;SHT30;56451;44.804;20.476;2022-09-09T06:11:43;24.57;67.83
68867;SHT30;56451;44.804;20.476;2022-09-09T06:14:10;24.55;68.14
68867;SHT30;56451;44.804;20.476;2022-09-09T06:16:37;24.49;68.40
68867;SHT30;56451;44.804;20.476;2022-09-09T06:19:14;24.51;68.09
68867;SHT30;56451;44.804;20.476;2022-09-09T06:21:40;24.52;67.96
68867;SHT30;56451;44.804;20.476;2022-09-09T06:24:08;24.55;68.10
68867;SHT30;56451;44.804;20.476;2022-09-09T06:26:36;24.51;68.05
68867;SHT30;56451;44.804;20.476;2022-09-09T06:29:04;24.47;68.52
68867;SHT30;56451;44.804;20.476;2022-09-09T06:31:32;24.47;68.73
68867;SHT30;56451;44.804;20.476;2022-09-09T06:34:07;24.48;68.55
68867;SHT30;56451;44.804;20.476;2022-09-09T06:36:37;24.48;68.84
68867;SHT30;56451;44.804;20.476;2022-09-09T06:39:04;24.45;69.01
68867;SHT30;56451;44.804;20.476;2022-09-09T06:41:32;24.47;68.37
68867;SHT30;56451;44.804;20.476;2022-09-09T06:43:59;24.48;68.51
68867;SHT30;56451;44.804;20.476;2022-09-09T06:46:39;24.41;68.80
68867;SHT30;56451;44.804;20.476;2022-09-09T06:49:05;24.38;68.98
68867;SHT30;56451;44.804;20.476;2022-09-09T06:51:37;24.39;69.42
68867;SHT30;56451;44.804;20.476;2022-09-09T06:54:08;24.42;69.28
68867;SHT30;56451;44.804;20.476;2022-09-09T06:56:39;24.49;69.02
68867;SHT30;56451;44.804;20.476;2022-09-09T06:59:19;24.54;69.31
68867;SHT30;56451;44.804;20.476;2022-09-09T07:01:46;24.61;69.91
68867;SHT30;56451;44.804;20.476;2022-09-09T07:04:17;24.64;69.87
68867;SHT30;56451;44.804;20.476;2022-09-09T07:06:45;24.68;69.20
68867;SHT30;56451;44.804;20.476;2022-09-09T07:09:16;24.73;69.57
68867;SHT30;56451;44.804;20.476;2022-09-09T07:11:46;24.75;69.95
68867;SHT30;56451;44.804;20.476;2022-09-09T07:14:13;24.80;69.87
68867;SHT30;56451;44.804;20.476;2022-09-09T07:16:42;24.79;69.96
68867;SHT30;56451;44.804;20.476;2022-09-09T07:19:09;24.79;69.56
68867;SHT30;56451;44.804;20.476;2022-09-09T07:21:35;24.79;69.47
68867;SHT30;56451;44.804;20.476;2022-09-09T07:24:01;24.75;69.68
68867;SHT30;56451;44.804;20.476;2022-09-09T07:26:29;24.73;69.81
68867;SHT30;56451;44.804;20.476;2022-09-09T07:28:57;24.73;69.94
68867;SHT30;56451;44.804;20.476;2022-09-09T07:31:30;24.75;70.06
68867;SHT30;56451;44.804;20.476;2022-09-09T07:33:58;24.78;69.82
68867;SHT30;56451;44.804;20.476;2022-09-09T07:36:36;24.78;69.77
68867;SHT30;56451;44.804;20.476;2022-09-09T07:39:07;24.79;69.52
68867;SHT30;56451;44.804;20.476;2022-09-09T07:41:43;24.80;69.50
68867;SHT30;56451;44.804;20.476;2022-09-09T07:44:11;24.76;69.46
68867;SHT30;56451;44.804;20.476;2022-09-09T07:46:39;24.76;69.21
68867;SHT30;56451;44.804;20.476;2022-09-09T07:49:08;24.78;69.26
68867;SHT30;56451;44.804;20.476;2022-09-09T07:51:36;24.75;69.03
68867;SHT30;56451;44.804;20.476;2022-09-09T07:54:07;24.76;68.69
68867;SHT30;56451;44.804;20.476;2022-09-09T07:56:36;24.76;68.69
68867;SHT30;56451;44.804;20.476;2022-09-09T07:59:03;24.73;68.53
68867;SHT30;56451;44.804;20.476;2022-09-09T08:01:34;24.78;68.34
68867;SHT30;56451;44.804;20.476;2022-09-09T08:04:08;24.76;68.29
68867;SHT30;56451;44.804;20.476;2022-09-09T08:06:40;24.75;68.45
68867;SHT30;56451;44.804;20.476;2022-09-09T08:09:09;24.72;68.29
68867;SHT30;56451;44.804;20.476;2022-09-09T08:11:37;24.72;68.49
68867;SHT30;56451;44.804;20.476;2022-09-09T08:14:04;24.72;68.44
68867;SHT30;56451;44.804;20.476;2022-09-09T08:16:33;24.69;68.48
68867;SHT30;56451;44.804;20.476;2022-09-09T08:19:00;24.73;68.24
68867;SHT30;56451;44.804;20.476;2022-09-09T08:21:30;24.72;68.53
68867;SHT30;56451;44.804;20.476;2022-09-09T08:23:59;24.73;68.26
68867;SHT30;56451;44.804;20.476;2022-09-09T08:26:27;24.75;67.88
68867;SHT30;56451;44.804;20.476;2022-09-09T08:28:56;24.78;67.54
68867;SHT30;56451;44.804;20.476;2022-09-09T08:31:28;24.72;67.59
68867;SHT30;56451;44.804;20.476;2022-09-09T08:33:56;24.76;67.38
68867;SHT30;56451;44.804;20.476;2022-09-09T08:36:24;24.76;67.53
68867;SHT30;56451;44.804;20.476;2022-09-09T08:38:56;24.82;67.12
68867;SHT30;56451;44.804;20.476;2022-09-09T08:41:38;24.83;66.58
68867;SHT30;56451;44.804;20.476;2022-09-09T08:49:59;24.85;66.18
68867;SHT30;56451;44.804;20.476;2022-09-09T08:56:01;24.83;65.54
68867;SHT30;56451;44.804;20.476;2022-09-09T08:58:13;24.90;65.86
68867;SHT30;56451;44.804;20.476;2022-09-09T09:01:00;24.93;66.29
68867;SHT30;56451;44.804;20.476;2022-09-09T09:08:47;25.12;66.25
68867;SHT30;56451;44.804;20.476;2022-09-09T09:11:17;25.16;65.92
68867;SHT30;56451;44.804;20.476;2022-09-09T09:13:48;25.26;65.73
68867;SHT30;56451;44.804;20.476;2022-09-09T09:18:59;25.48;65.18
68867;SHT30;56451;44.804;20.476;2022-09-09T09:21:42;25.57;64.61
68867;SHT30;56451;44.804;20.476;2022-09-09T09:25:11;25.61;64.50
68867;SHT30;56451;44.804;20.476;2022-09-09T09:27:14;25.65;64.25
68867;SHT30;56451;44.804;20.476;2022-09-09T09:29:45;25.67;64.52
68867;SHT30;56451;44.804;20.476;2022-09-09T09:32:18;25.68;64.39
68867;SHT30;56451;44.804;20.476;2022-09-09T09:34:51;25.61;64.49
68867;SHT30;56451;44.804;20.476;2022-09-09T09:37:29;25.61;64.63
68867;SHT30;56451;44.804;20.476;2022-09-09T09:40:14;25.58;64.74
68867;SHT30;56451;44.804;20.476;2022-09-09T09:42:52;25.64;64.98
68867;SHT30;56451;44.804;20.476;2022-09-09T09:48:06;25.77;64.57
68867;SHT30;56451;44.804;20.476;2022-09-09T09:50:47;25.81;64.85
68867;SHT30;56451;44.804;20.476;2022-09-09T09:53:26;25.89;64.63
68867;SHT30;56451;44.804;20.476;2022-09-09T09:55:56;25.92;64.47
68867;SHT30;56451;44.804;20.476;2022-09-09T09:58:23;25.95;64.63
68867;SHT30;56451;44.804;20.476;2022-09-09T10:00:52;25.92;64.59
68867;SHT30;56451;44.804;20.476;2022-09-09T10:03:30;25.84;64.53
68867;SHT30;56451;44.804;20.476;2022-09-09T10:05:57;25.77;64.50
68867;SHT30;56451;44.804;20.476;2022-09-09T10:08:27;25.77;64.23
68867;SHT30;56451;44.804;20.476;2022-09-09T10:19:00;25.80;64.64
68867;SHT30;56451;44.804;20.476;2022-09-09T10:25:19;25.89;64.54
68867;SHT30;56451;44.804;20.476;2022-09-09T10:27:29;25.89;63.98
68867;SHT30;56451;44.804;20.476;2022-09-09T10:31:00;25.92;64.10
68867;SHT30;56451;44.804;20.476;2022-09-09T10:33:04;26.01;64.26
68867;SHT30;56451;44.804;20.476;2022-09-09T10:39:01;26.05;63.86
68867;SHT30;56451;44.804;20.476;2022-09-09T10:44:44;26.22;63.69
68867;SHT30;56451;44.804;20.476;2022-09-09T10:55:26;26.47;60.57
68867;SHT30;56451;44.804;20.476;2022-09-09T10:57:57;26.54;60.38
68867;SHT30;56451;44.804;20.476;2022-09-09T11:00:28;26.61;59.98
68867;SHT30;56451;44.804;20.476;2022-09-09T11:03:00;26.65;59.77
68867;SHT30;56451;44.804;20.476;2022-09-09T11:05:31;26.77;59.95
68867;SHT30;56451;44.804;20.476;2022-09-09T11:08:06;26.87;59.32
68867;SHT30;56451;44.804;20.476;2022-09-09T11:11:02;26.94;59.18
68867;SHT30;56451;44.804;20.476;2022-09-09T11:16:33;27.12;59.90
68867;SHT30;56451;44.804;20.476;2022-09-09T11:19:24;27.18;60.08
68867;SHT30;56451;44.804;20.476;2022-09-09T11:21:52;27.25;60.07
68867;SHT30;56451;44.804;20.476;2022-09-09T11:24:26;27.31;59.67
68867;SHT30;56451;44.804;20.476;2022-09-09T11:27:13;27.36;59.55
68867;SHT30;56451;44.804;20.476;2022-09-09T11:38:45;27.66;55.83
68867;SHT30;56451;44.804;20.476;2022-09-09T11:41:17;27.69;55.02
68867;SHT30;56451;44.804;20.476;2022-09-09T11:43:51;27.73;56.04
68867;SHT30;56451;44.804;20.476;2022-09-09T11:46:22;27.76;56.25
68867;SHT30;56451;44.804;20.476;2022-09-09T11:49:01;27.80;56.80
68867;SHT30;56451;44.804;20.476;2022-09-09T11:51:29;27.87;56.92
68867;SHT30;56451;44.804;20.476;2022-09-09T11:53:58;27.92;55.72
68867;SHT30;56451;44.804;20.476;2022-09-09T11:56:32;27.93;55.19
68867;SHT30;56451;44.804;20.476;2022-09-09T11:59:17;28.01;54.06
68867;SHT30;56451;44.804;20.476;2022-09-09T12:01:48;28.07;53.96
68867;SHT30;56451;44.804;20.476;2022-09-09T12:04:21;28.13;54.11
68867;SHT30;56451;44.804;20.476;2022-09-09T12:06:55;28.14;54.48
68867;SHT30;56451;44.804;20.476;2022-09-09T12:11:50;28.25;54.71
68867;SHT30;56451;44.804;20.476;2022-09-09T12:19:41;28.48;53.17
68867;SHT30;56451;44.804;20.476;2022-09-09T12:24:51;28.59;52.60
68867;SHT30;56451;44.804;20.476;2022-09-09T12:30:15;28.69;51.89
68867;SHT30;56451;44.804;20.476;2022-09-09T12:32:42;28.73;52.64
68867;SHT30;56451;44.804;20.476;2022-09-09T12:35:26;28.80;52.49
68867;SHT30;56451;44.804;20.476;2022-09-09T12:37:59;28.86;51.55
68867;SHT30;56451;44.804;20.476;2022-09-09T12:40:27;28.93;49.90
68867;SHT30;56451;44.804;20.476;2022-09-09T12:42:53;28.99;49.99
68867;SHT30;56451;44.804;20.476;2022-09-09T12:45:23;29.03;48.64
68867;SHT30;56451;44.804;20.476;2022-09-09T12:48:11;29.00;49.01
68867;SHT30;56451;44.804;20.476;2022-09-09T12:50:44;28.99;50.03
68867;SHT30;56451;44.804;20.476;2022-09-09T12:53:30;28.99;50.03
68867;SHT30;56451;44.804;20.476;2022-09-09T12:55:59;28.99;50.75
68867;SHT30;56451;44.804;20.476;2022-09-09T12:58:27;29.03;50.89
68867;SHT30;56451;44.804;20.476;2022-09-09T13:00:58;29.02;50.99
68867;SHT30;56451;44.804;20.476;2022-09-09T13:03:26;29.03;50.82
68867;SHT30;56451;44.804;20.476;2022-09-09T13:05:53;29.03;50.97
68867;SHT30;56451;44.804;20.476;2022-09-09T13:08:19;29.00;51.26
68867;SHT30;56451;44.804;20.476;2022-09-09T13:10:50;29.02;51.36
68867;SHT30;56451;44.804;20.476;2022-09-09T13:13:22;28.98;51.58
68867;SHT30;56451;44.804;20.476;2022-09-09T13:15:51;28.98;51.48
68867;SHT30;56451;44.804;20.476;2022-09-09T13:18:21;28.95;51.48
68867;SHT30;56451;44.804;20.476;2022-09-09T13:20:49;28.96;51.28
68867;SHT30;56451;44.804;20.476;2022-09-09T13:23:15;29.00;50.92
68867;SHT30;56451;44.804;20.476;2022-09-09T13:25:53;29.03;51.41
68867;SHT30;56451;44.804;20.476;2022-09-09T13:28:24;29.03;51.24
68867;SHT30;56451;44.804;20.476;2022-09-09T13:33:47;29.04;50.86
68867;SHT30;56451;44.804;20.476;2022-09-09T13:36:13;29.07;50.43
68867;SHT30;56451;44.804;20.476;2022-09-09T13:41:32;29.20;50.41
68867;SHT30;56451;44.804;20.476;2022-09-09T13:43:58;29.24;49.83
68867;SHT30;56451;44.804;20.476;2022-09-09T13:46:35;29.29;49.53
68867;SHT30;56451;44.804;20.476;2022-09-09T13:54:05;29.38;49.87
68867;SHT30;56451;44.804;20.476;2022-09-09T13:56:35;29.40;49.72
68867;SHT30;56451;44.804;20.476;2022-09-09T13:59:02;29.41;49.72
68867;SHT30;56451;44.804;20.476;2022-09-09T14:01:29;29.47;49.62
68867;SHT30;56451;44.804;20.476;2022-09-09T14:03:55;29.55;49.53
68867;SHT30;56451;44.804;20.476;2022-09-09T14:06:21;29.59;49.20
68867;SHT30;56451;44.804;20.476;2022-09-09T14:08:49;29.68;49.22
68867;SHT30;56451;44.804;20.476;2022-09-09T14:11:16;29.77;49.07
68867;SHT30;56451;44.804;20.476;2022-09-09T14:13:42;29.86;48.57
68867;SHT30;56451;44.804;20.476;2022-09-09T14:16:08;29.90;48.18
68867;SHT30;56451;44.804;20.476;2022-09-09T14:18:35;29.99;47.81
68867;SHT30;56451;44.804;20.476;2022-09-09T14:21:03;30.06;47.36
68867;SHT30;56451;44.804;20.476;2022-09-09T14:23:29;30.12;47.25
68867;SHT30;56451;44.804;20.476;2022-09-09T14:25:56;30.16;46.45
68867;SHT30;56451;44.804;20.476;2022-09-09T14:28:22;30.23;46.63
68867;SHT30;56451;44.804;20.476;2022-09-09T14:30:48;30.32;46.48
68867;SHT30;56451;44.804;20.476;2022-09-09T14:33:15;30.36;46.34
68867;SHT30;56451;44.804;20.476;2022-09-09T14:35:41;30.40;45.56
68867;SHT30;56451;44.804;20.476;2022-09-09T14:38:08;30.46;46.01
68867;SHT30;56451;44.804;20.476;2022-09-09T14:40:35;30.48;45.71
68867;SHT30;56451;44.804;20.476;2022-09-09T14:43:02;30.53;45.63
68867;SHT30;56451;44.804;20.476;2022-09-09T14:45:28;30.60;45.48
68867;SHT30;56451;44.804;20.476;2022-09-09T14:47:54;30.60;45.57
68867;SHT30;56451;44.804;20.476;2022-09-09T14:50:21;30.64;45.52
68867;SHT30;56451;44.804;20.476;2022-09-09T14:52:47;30.63;45.50
68867;SHT30;56451;44.804;20.476;2022-09-09T14:55:13;30.67;45.25
68867;SHT30;56451;44.804;20.476;2022-09-09T14:57:39;30.68;44.91
68867;SHT30;56451;44.804;20.476;2022-09-09T15:00:07;30.70;44.91
68867;SHT30;56451;44.804;20.476;2022-09-09T15:02:33;30.71;44.66
68867;SHT30;56451;44.804;20.476;2022-09-09T15:04:59;30.77;44.57
68867;SHT30;56451;44.804;20.476;2022-09-09T15:07:25;30.78;44.47
68867;SHT30;56451;44.804;20.476;2022-09-09T15:09:52;30.80;44.59
68867;SHT30;56451;44.804;20.476;2022-09-09T15:12:18;30.81;44.41
68867;SHT30;56451;44.804;20.476;2022-09-09T15:14:45;30.84;44.67
68867;SHT30;56451;44.804;20.476;2022-09-09T15:17:11;30.84;44.56
68867;SHT30;56451;44.804;20.476;2022-09-09T15:19:37;30.85;44.90
68867;SHT30;56451;44.804;20.476;2022-09-09T15:22:04;30.85;44.34
68867;SHT30;56451;44.804;20.476;2022-09-09T15:24:32;30.88;44.52
68867;SHT30;56451;44.804;20.476;2022-09-09T15:26:58;30.87;44.64
68867;SHT30;56451;44.804;20.476;2022-09-09T15:29:24;30.87;44.30
68867;SHT30;56451;44.804;20.476;2022-09-09T15:31:50;30.83;44.77
68867;SHT30;56451;44.804;20.476;2022-09-09T15:34:16;30.85;44.61
68867;SHT30;56451;44.804;20.476;2022-09-09T15:36:45;30.84;44.91
68867;SHT30;56451;44.804;20.476;2022-09-09T15:39:16;30.85;44.40
68867;SHT30;56451;44.804;20.476;2022-09-09T15:41:43;30.84;44.37
68867;SHT30;56451;44.804;20.476;2022-09-09T15:44:09;30.81;44.29
68867;SHT30;56451;44.804;20.476;2022-09-09T15:46:39;30.83;44.82
68867;SHT30;56451;44.804;20.476;2022-09-09T15:51:37;30.77;44.69
68867;SHT30;56451;44.804;20.476;2022-09-09T15:54:04;30.73;44.78
68867;SHT30;56451;44.804;20.476;2022-09-09T15:56:30;30.70;44.97
68867;SHT30;56451;44.804;20.476;2022-09-09T15:58:57;30.67;44.85
68867;SHT30;56451;44.804;20.476;2022-09-09T16:01:24;30.65;45.15
68867;SHT30;56451;44.804;20.476;2022-09-09T16:03:49;30.61;44.75
68867;SHT30;56451;44.804;20.476;2022-09-09T16:06:21;30.60;45.15
68867;SHT30;56451;44.804;20.476;2022-09-09T16:08:49;30.56;45.12
68867;SHT30;56451;44.804;20.476;2022-09-09T16:11:26;30.53;45.31
68867;SHT30;56451;44.804;20.476;2022-09-09T16:13:53;30.52;45.32
68867;SHT30;56451;44.804;20.476;2022-09-09T16:16:22;30.48;45.48
68867;SHT30;56451;44.804;20.476;2022-09-09T16:18:50;30.46;45.56
68867;SHT30;56451;44.804;20.476;2022-09-09T16:21:34;30.39;45.49
68867;SHT30;56451;44.804;20.476;2022-09-09T16:24:02;30.30;45.68
68867;SHT30;56451;44.804;20.476;2022-09-09T16:26:31;30.22;45.50
68867;SHT30;56451;44.804;20.476;2022-09-09T16:28:57;30.13;46.03
68867;SHT30;56451;44.804;20.476;2022-09-09T16:31:27;30.04;46.04
68867;SHT30;56451;44.804;20.476;2022-09-09T16:33:53;29.96;46.14
68867;SHT30;56451;44.804;20.476;2022-09-09T16:36:22;29.88;46.45
68867;SHT30;56451;44.804;20.476;2022-09-09T16:38:48;29.78;46.69
68867;SHT30;56451;44.804;20.476;2022-09-09T16:41:14;29.71;46.53
68867;SHT30;56451;44.804;20.476;2022-09-09T16:43:40;29.62;46.67
68867;SHT30;56451;44.804;20.476;2022-09-09T16:46:13;29.48;47.04
68867;SHT30;56451;44.804;20.476;2022-09-09T16:48:42;29.44;47.20
68867;SHT30;56451;44.804;20.476;2022-09-09T16:51:15;29.37;47.49
68867;SHT30;56451;44.804;20.476;2022-09-09T16:53:42;29.29;47.84
68867;SHT30;56451;44.804;20.476;2022-09-09T16:56:10;29.24;47.86
68867;SHT30;56451;44.804;20.476;2022-09-09T16:58:36;29.16;47.99
68867;SHT30;56451;44.804;20.476;2022-09-09T17:01:03;29.13;47.96
68867;SHT30;56451;44.804;20.476;2022-09-09T17:03:30;29.04;48.11
68867;SHT30;56451;44.804;20.476;2022-09-09T17:05:58;28.98;48.34
68867;SHT30;56451;44.804;20.476;2022-09-09T17:08:29;28.92;48.44
68867;SHT30;56451;44.804;20.476;2022-09-09T17:10:55;28.88;48.54
68867;SHT30;56451;44.804;20.476;2022-09-09T17:13:21;28.80;48.79
68867;SHT30;56451;44.804;20.476;2022-09-09T17:15:47;28.78;48.99
68867;SHT30;56451;44.804;20.476;2022-09-09T17:18:13;28.73;48.91
68867;SHT30;56451;44.804;20.476;2022-09-09T17:20:40;28.65;49.14
68867;SHT30;56451;44.804;20.476;2022-09-09T17:23:08;28.66;49.34
68867;SHT30;56451;44.804;20.476;2022-09-09T17:25:35;28.58;49.60
68867;SHT30;56451;44.804;20.476;2022-09-09T17:28:02;28.52;50.04
68867;SHT30;56451;44.804;20.476;2022-09-09T17:30:33;28.49;50.33
68867;SHT30;56451;44.804;20.476;2022-09-09T17:33:00;28.45;50.83
68867;SHT30;56451;44.804;20.476;2022-09-09T17:35:26;28.41;50.84
68867;SHT30;56451;44.804;20.476;2022-09-09T17:37:53;28.41;51.15